Time;durP1;ratioP1;P1;durP2;ratioP2;P2;SDS_P1;SDS_P2;PMS_P1;PMS_P2;Temp;Humidity;BMP_temperature;BMP_pressure;BME280_temperature;BME280_humidity;BME280_pressure;Samples;Min_cycle;Max_cycle;Signal;HPM_P1;HPM_P2
2021/10/06 00:03:00;;;;;;;10.98;5.60;;;;;;;9.67;65.11;101784.42;1763114;81;21359;-74
2021/10/06 00:06:06;;;;;;;12.47;6.22;;;;;;;9.63;65.28;101786.19;1760055;81;21704;-75
2021/10/06 00:09:12;;;;;;;8.40;5.10;;;;;;;9.58;65.40;101782.48;1762716;80;21295;-74
2021/10/06 00:12:18;;;;;;;13.90;6.50;;;;;;;9.54;65.51;101786.48;1769609;81;21217;-74
2021/10/06 00:15:25;;;;;;;10.85;6.12;;;;;;;9.48;65.83;101783.80;1769226;81;21755;-74
2021/10/06 00:18:30;;;;;;;11.43;6.00;;;;;;;9.39;66.01;101783.23;1770975;81;21819;-75
2021/10/06 00:21:36;;;;;;;14.53;5.90;;;;;;;9.30;66.29;101785.89;1770334;80;21332;-74
2021/10/06 00:24:41;;;;;;;11.73;5.62;;;;;;;9.18;66.58;101787.33;1785417;79;21173;-74
2021/10/06 00:27:49;;;;;;;9.63;5.97;;;;;;;9.06;66.99;101797.91;1802575;79;21331;-74
2021/10/06 00:30:54;;;;;;;9.83;5.53;;;;;;;8.95;67.49;101793.88;1802394;79;21315;-74
2021/10/06 00:33:59;;;;;;;10.80;5.97;;;;;;;8.83;67.84;101790.80;1802727;79;21296;-75
2021/10/06 00:37:04;;;;;;;7.65;5.65;;;;;;;8.73;68.34;101796.67;1803149;79;21828;-74
2021/10/06 00:40:11;;;;;;;9.70;5.80;;;;;;;8.61;68.95;101798.54;1792413;79;21851;-74
2021/10/06 00:43:16;;;;;;;12.58;6.65;;;;;;;8.51;69.39;101808.48;1786840;80;21221;-74
2021/10/06 00:46:22;;;;;;;9.90;5.50;;;;;;;8.41;69.92;101807.02;1786644;80;21328;-74
2021/10/06 00:49:27;;;;;;;9.70;5.78;;;;;;;8.34;70.31;101807.13;1786847;80;21849;-74
2021/10/06 00:52:33;;;;;;;12.00;6.22;;;;;;;8.24;70.56;101802.06;1785750;80;21843;-74
2021/10/06 00:55:38;;;;;;;13.45;6.35;;;;;;;8.15;71.13;101795.00;1773309;80;21300;-74
2021/10/06 00:58:43;;;;;;;12.82;6.08;;;;;;;8.06;71.70;101803.05;1736334;82;21713;-74
2021/10/06 01:01:49;;;;;;;10.72;6.33;;;;;;;8.00;71.99;101808.50;1735475;82;21770;-74
2021/10/06 01:04:56;;;;;;;9.65;6.45;;;;;;;7.94;72.12;101806.25;1736556;82;21197;-74
2021/10/06 01:08:03;;;;;;;14.95;5.67;;;;;;;7.88;72.58;101810.34;1734550;82;21300;-74
2021/10/06 01:11:09;;;;;;;11.50;5.97;;;;;;;7.84;72.81;101803.89;1725747;82;21888;-74
2021/10/06 01:14:15;;;;;;;9.10;6.15;;;;;;;7.80;73.07;101812.80;1736623;82;21340;-74
2021/10/06 01:17:20;;;;;;;10.90;6.17;;;;;;;7.75;73.39;101805.98;1770491;81;21308;-74
2021/10/06 01:20:25;;;;;;;9.55;5.90;;;;;;;7.72;73.46;101813.92;1733177;82;21317;-74
2021/10/06 01:23:31;;;;;;;15.08;6.67;;;;;;;7.67;73.95;101820.23;1734918;82;21383;-74
2021/10/06 01:26:37;;;;;;;12.68;6.40;;;;;;;7.63;74.15;101810.56;1708043;84;21839;-74
2021/10/06 01:29:43;;;;;;;12.80;6.67;;;;;;;7.60;74.28;101823.05;1705308;84;21312;-74
2021/10/06 01:32:50;;;;;;;10.93;6.92;;;;;;;7.56;74.55;101820.19;1705556;83;21332;-74
2021/10/06 01:35:56;;;;;;;14.53;6.87;;;;;;;7.52;74.76;101824.13;1707709;84;21312;-74
2021/10/06 01:39:01;;;;;;;10.78;5.92;;;;;;;7.50;74.92;101826.13;1706981;84;21313;-74
2021/10/06 01:42:07;;;;;;;11.95;6.58;;;;;;;7.46;75.25;101821.90;1707101;84;21964;-74
2021/10/06 01:45:13;;;;;;;13.22;6.12;;;;;;;7.41;75.43;101826.34;1713304;83;21370;-74
2021/10/06 01:48:19;;;;;;;11.83;6.47;;;;;;;7.37;75.58;101829.78;1708556;83;21393;-75
2021/10/06 01:51:25;;;;;;;19.37;6.62;;;;;;;7.33;75.74;101833.73;1707884;84;21310;-74
2021/10/06 01:54:30;;;;;;;9.70;6.40;;;;;;;7.29;76.06;101833.61;1694869;84;21306;-74
2021/10/06 01:57:35;;;;;;;15.63;6.47;;;;;;;7.24;76.31;101828.12;1705031;84;21310;-74
2021/10/06 02:00:41;;;;;;;12.23;6.28;;;;;;;7.21;76.37;101834.69;1720411;83;21361;-74
2021/10/06 02:03:46;;;;;;;11.33;6.87;;;;;;;7.15;76.50;101827.87;1727070;83;21274;-74
2021/10/06 02:06:52;;;;;;;15.00;7.60;;;;;;;7.10;76.70;101830.53;1709578;83;21901;-74
2021/10/06 02:09:57;;;;;;;13.65;6.42;;;;;;;7.08;76.68;101836.60;1704503;83;21318;-74
2021/10/06 02:13:05;;;;;;;13.65;6.80;;;;;;;7.05;76.68;101832.74;1703497;84;21274;-75
2021/10/06 02:16:10;;;;;;;11.55;6.70;;;;;;;7.04;76.72;101829.16;1705354;84;21933;-74
2021/10/06 02:19:15;;;;;;;14.00;7.35;;;;;;;7.06;76.62;101834.50;1704704;83;21281;-74
2021/10/06 02:22:21;;;;;;;9.75;6.00;;;;;;;7.09;76.43;101832.89;1714050;83;21282;-74
2021/10/06 02:25:26;;;;;;;10.75;6.10;;;;;;;7.12;76.18;101839.47;1731133;83;21199;-74
2021/10/06 02:28:32;;;;;;;16.73;6.35;;;;;;;7.14;76.00;101825.23;1736246;82;21347;-74
2021/10/06 02:31:38;;;;;;;9.50;6.10;;;;;;;7.15;75.83;101832.41;1743867;81;21316;-74
2021/10/06 02:34:43;;;;;;;11.03;6.03;;;;;;;7.15;75.74;101829.69;1732963;82;21372;-74
2021/10/06 02:37:48;;;;;;;13.22;5.83;;;;;;;7.14;75.54;101833.41;1735401;81;21292;-75
2021/10/06 02:40:55;;;;;;;13.93;6.00;;;;;;;7.11;75.43;101836.38;1757515;81;21189;-74
2021/10/06 02:44:01;;;;;;;11.18;6.30;;;;;;;7.08;75.48;101829.30;1736633;82;21190;-74
2021/10/06 02:47:08;;;;;;;11.93;6.05;;;;;;;7.05;75.65;101838.19;1733497;82;21364;-74
2021/10/06 02:50:16;;;;;;;15.75;5.37;;;;;;;7.02;75.69;101850.19;1735691;82;21221;-74
2021/10/06 02:53:21;;;;;;;14.75;5.53;;;;;;;7.01;75.65;101846.20;1744461;82;21217;-74
2021/10/06 02:56:27;;;;;;;11.70;5.75;;;;;;;6.99;75.76;101845.46;1742624;82;21908;-74
2021/10/06 02:59:32;;;;;;;10.53;5.35;;;;;;;6.97;75.87;101848.31;1735547;82;22545;-74
2021/10/06 03:02:39;;;;;;;23.83;5.83;;;;;;;6.94;75.97;101853.10;1736709;82;21718;-75
2021/10/06 03:05:45;;;;;;;10.80;5.53;;;;;;;6.90;75.97;101857.41;1730549;82;21303;-74
2021/10/06 03:08:50;;;;;;;16.02;6.05;;;;;;;6.89;75.91;101859.75;1744641;82;21295;-74
2021/10/06 03:11:57;;;;;;;14.40;5.87;;;;;;;6.88;75.85;101852.58;1737722;82;21242;-74
2021/10/06 03:15:02;;;;;;;9.15;5.47;;;;;;;6.86;75.83;101861.33;1735521;82;21332;-74
2021/10/06 03:18:08;;;;;;;11.73;5.33;;;;;;;6.85;75.73;101862.81;1736284;82;21166;-74
2021/10/06 03:21:13;;;;;;;11.65;5.03;;;;;;;6.83;75.69;101868.38;1734896;82;21312;-74
2021/10/06 03:24:19;;;;;;;9.63;5.22;;;;;;;6.79;75.75;101868.23;1750880;79;21335;-74
2021/10/06 03:27:24;;;;;;;15.88;5.80;;;;;;;6.77;75.80;101867.45;1802503;79;21359;-74
2021/10/06 03:30:30;;;;;;;10.13;5.25;;;;;;;6.77;75.77;101873.39;1802803;79;21803;-74
2021/10/06 03:33:36;;;;;;;18.52;5.65;;;;;;;6.75;75.63;101870.80;1802311;79;21335;-74
2021/10/06 03:36:41;;;;;;;10.13;5.15;;;;;;;6.74;75.56;101862.27;1798366;79;21879;-74
2021/10/06 03:39:47;;;;;;;10.75;5.60;;;;;;;6.71;75.40;101869.28;1781430;80;21283;-76
2021/10/06 03:42:53;;;;;;;12.37;6.17;;;;;;;6.68;75.35;101871.34;1769324;81;21843;-74
2021/10/06 03:46:01;;;;;;;13.38;5.15;;;;;;;6.64;75.16;101866.16;1776814;79;21288;-74
2021/10/06 03:49:07;;;;;;;12.37;4.50;;;;;;;6.62;75.04;101865.88;1786490;80;21355;-74
2021/10/06 03:52:12;;;;;;;9.60;5.22;;;;;;;6.59;74.74;101872.92;1786675;80;21823;-74
2021/10/06 03:55:18;;;;;;;9.85;4.65;;;;;;;6.56;73.94;101870.42;1773442;79;21162;-74
2021/10/06 03:58:24;;;;;;;10.45;4.92;;;;;;;6.53;73.56;101867.91;1730060;81;21308;-74
2021/10/06 04:01:29;;;;;;;11.53;4.40;;;;;;;6.49;73.03;101868.62;1722333;83;21314;-74
2021/10/06 04:04:35;;;;;;;12.78;4.47;;;;;;;6.46;72.65;101866.14;1722300;81;21864;-76
2021/10/06 04:07:40;;;;;;;13.18;5.28;;;;;;;6.46;72.52;101872.08;1739915;82;21822;-74
2021/10/06 04:10:46;;;;;;;8.63;4.65;;;;;;;6.43;72.29;101869.56;1796992;79;21884;-74
2021/10/06 04:13:52;;;;;;;8.80;4.22;;;;;;;6.37;71.91;101881.27;1811626;79;21275;-74
2021/10/06 04:16:57;;;;;;;8.65;4.22;;;;;;;6.35;71.22;101879.62;1811985;79;21267;-74
2021/10/06 04:20:03;;;;;;;11.22;4.70;;;;;;;6.34;71.28;101888.27;1781192;80;21915;-74
2021/10/06 04:23:08;;;;;;;8.98;4.45;;;;;;;6.35;71.23;101899.55;1742830;81;21485;-74
2021/10/06 04:26:14;;;;;;;9.43;4.58;;;;;;;6.33;71.06;101891.98;1783045;80;21860;-74
2021/10/06 04:29:19;;;;;;;11.83;4.35;;;;;;;6.33;70.57;101898.77;1793360;80;21323;-74
2021/10/06 04:32:25;;;;;;;12.28;4.40;;;;;;;6.31;69.61;101896.66;1758717;80;21335;-74
2021/10/06 04:35:31;;;;;;;11.70;3.98;;;;;;;6.32;68.73;101897.53;1737308;81;21300;-74
2021/10/06 04:38:37;;;;;;;8.13;4.08;;;;;;;6.29;68.14;101895.89;1781030;79;21835;-74
2021/10/06 04:41:42;;;;;;;7.97;4.12;;;;;;;6.30;67.93;101903.05;1773612;79;21916;-74
2021/10/06 04:44:49;;;;;;;20.17;4.28;;;;;;;6.31;67.69;101902.10;1787200;79;21295;-74
2021/10/06 04:47:56;;;;;;;10.30;3.92;;;;;;;6.33;67.29;101907.42;1784374;79;21311;-74
2021/10/06 04:51:01;;;;;;;14.23;4.85;;;;;;;6.34;67.06;101898.28;1737727;81;21304;-74
2021/10/06 04:54:07;;;;;;;10.65;3.77;;;;;;;6.34;66.82;101897.78;1776972;79;21304;-75
2021/10/06 04:57:13;;;;;;;18.02;3.83;;;;;;;6.36;66.33;101899.05;1733404;81;21284;-74
2021/10/06 05:00:20;;;;;;;13.55;4.00;;;;;;;6.34;65.69;101904.58;1776976;79;21287;-78
2021/10/06 05:03:39;;;;;;;12.00;3.40;;;;;;;6.36;65.04;101909.44;1777935;79;21299;-77
2021/10/06 05:06:47;;;;;;;13.18;4.17;;;;;;;6.36;64.66;101904.00;1777284;79;21334;-76
2021/10/06 05:09:53;;;;;;;10.72;4.05;;;;;;;6.36;63.98;101902.64;1739558;81;21201;-77
2021/10/06 05:12:58;;;;;;;13.38;4.45;;;;;;;6.38;64.09;101910.17;1714951;82;21299;-82
2021/10/06 05:16:05;;;;;;;15.78;4.50;;;;;;;6.39;63.42;101908.33;1701549;82;21235;-75
2021/10/06 05:19:12;;;;;;;23.67;4.60;;;;;;;6.41;63.55;101915.89;1741106;81;21171;-77
2021/10/06 05:22:22;;;;;;;10.43;4.35;;;;;;;6.45;63.12;101923.35;1714884;82;21796;-77
2021/10/06 05:25:27;;;;;;;18.07;4.00;;;;;;;6.48;62.22;101921.75;1772473;78;21759;-75
2021/10/06 05:28:40;;;;;;;15.72;4.15;;;;;;;6.50;61.51;101917.09;1786789;78;21260;-74
2021/10/06 05:31:46;;;;;;;14.00;4.03;;;;;;;6.54;61.76;101921.30;1780859;79;21292;-77
2021/10/06 05:34:52;;;;;;;19.50;4.65;;;;;;;6.58;61.27;101925.53;1783884;79;21267;-75
2021/10/06 05:38:00;;;;;;;20.17;4.42;;;;;;;6.61;60.42;101931.63;1777525;78;21724;-76
2021/10/06 05:41:04;;;;;;;16.97;4.30;;;;;;;6.67;60.80;101924.87;1784342;79;21300;-76
2021/10/06 05:44:10;;;;;;;15.25;4.17;;;;;;;6.74;60.05;101931.61;1746052;80;21142;-75
2021/10/06 05:47:15;;;;;;;19.55;4.40;;;;;;;6.80;60.12;101929.80;1718776;81;21178;-75
2021/10/06 05:50:20;;;;;;;14.65;3.85;;;;;;;6.88;59.27;101936.91;1741861;81;21210;-75
2021/10/06 05:53:30;;;;;;;23.67;3.98;;;;;;;6.95;58.06;101948.69;1790491;78;21319;-79
2021/10/06 05:56:34;;;;;;;19.62;4.62;;;;;;;6.97;57.66;101953.55;1794435;79;21304;-75
2021/10/06 05:59:40;;;;;;;18.65;3.75;;;;;;;6.98;57.50;101945.26;1774217;79;21307;-75
2021/10/06 06:02:52;;;;;;;13.93;4.10;;;;;;;7.02;57.33;101953.58;1777451;79;21374;-75
2021/10/06 06:05:57;;;;;;;18.70;4.08;;;;;;;7.09;57.09;101945.81;1782057;78;21789;-74
2021/10/06 06:09:03;;;;;;;16.12;3.98;;;;;;;7.18;56.57;101953.30;1781931;79;21346;-76
2021/10/06 06:12:09;;;;;;;40.40;5.95;;;;;;;7.23;55.87;101938.84;1739515;81;21314;-75
2021/10/06 06:15:17;;;;;;;17.77;4.22;;;;;;;7.25;55.39;101955.95;1721560;82;22581;-76
2021/10/06 06:18:23;;;;;;;29.82;4.60;;;;;;;7.29;55.31;101948.40;1718968;82;21342;-74
2021/10/06 06:21:28;;;;;;;30.97;4.00;;;;;;;7.37;54.35;101944.61;1714701;81;21306;-74
2021/10/06 06:24:33;;;;;;;20.20;3.85;;;;;;;7.46;53.94;101956.66;1744575;81;21504;-75
2021/10/06 06:27:38;;;;;;;39.45;5.60;;;;;;;7.52;53.35;101946.16;1745648;80;21307;-74
2021/10/06 06:30:44;;;;;;;37.25;4.45;;;;;;;7.60;52.88;101937.42;1713930;82;21777;-74
2021/10/06 06:33:49;;;;;;;24.15;3.87;;;;;;;7.67;52.50;101942.30;1695783;81;21253;-74
2021/10/06 06:36:54;;;;;;;39.30;4.70;;;;;;;7.75;52.84;101940.31;1779929;78;21763;-74
2021/10/06 06:40:00;;;;;;;27.10;3.45;;;;;;;7.84;51.85;101939.61;1767114;79;21260;-74
2021/10/06 06:43:11;;;;;;;26.25;4.15;;;;;;;7.93;51.35;101947.56;1773632;79;21427;-78
2021/10/06 06:46:16;;;;;;;32.35;4.58;;;;;;;8.02;51.21;101939.17;1766633;79;21228;-76
2021/10/06 06:49:22;;;;;;;33.23;3.58;;;;;;;8.06;50.97;101937.45;1776472;78;21204;-76
2021/10/06 06:52:30;;;;;;;20.60;4.50;;;;;;;8.14;50.46;101949.13;1768512;78;21288;-77
2021/10/06 06:55:35;;;;;;;14.75;3.15;;;;;;;8.22;50.57;101927.55;1779125;79;21290;-76
2021/10/06 06:58:41;;;;;;;17.65;3.58;;;;;;;8.31;50.50;101939.09;1783514;78;21315;-76
2021/10/06 07:01:46;;;;;;;23.57;3.35;;;;;;;8.40;49.21;101942.98;1776953;78;21208;-76
2021/10/06 07:04:53;;;;;;;18.70;3.45;;;;;;;8.42;48.68;101954.63;1777424;79;21318;-76
2021/10/06 07:07:58;;;;;;;33.67;4.75;;;;;;;8.44;48.13;101941.25;1775923;78;21193;-74
2021/10/06 07:11:04;;;;;;;16.62;3.77;;;;;;;8.49;48.45;101945.47;1740894;79;21326;-75
2021/10/06 07:14:13;;;;;;;25.75;3.17;;;;;;;8.59;46.89;101952.78;1775693;79;21295;-74
2021/10/06 07:17:20;;;;;;;11.83;2.80;;;;;;;8.68;46.38;101926.62;1782245;78;21244;-75
2021/10/06 07:20:26;;;;;;;14.58;3.60;;;;;;;8.77;46.63;101934.56;1758070;78;22452;-75
2021/10/06 07:23:34;;;;;;;22.87;3.20;;;;;;;8.87;46.26;101949.19;1715246;79;21653;-75
2021/10/06 07:26:47;;;;;;;24.80;3.52;;;;;;;8.95;45.72;101924.87;1776650;78;21167;-76
2021/10/06 07:29:53;;;;;;;19.40;2.75;;;;;;;9.00;45.30;101922.63;1775278;78;21216;-76
2021/10/06 07:33:00;;;;;;;22.02;3.27;;;;;;;8.96;44.77;101913.81;1764383;79;21867;-76
2021/10/06 07:36:06;;;;;;;27.40;3.22;;;;;;;8.91;44.21;101900.19;1760700;79;21307;-76
2021/10/06 07:39:11;;;;;;;15.95;4.53;;;;;;;9.03;43.93;101915.52;1768873;79;21208;-76
2021/10/06 07:42:16;;;;;;;15.38;3.27;;;;;;;9.07;43.06;101942.08;1764600;79;21208;-76
2021/10/06 07:45:25;;;;;;;29.05;3.15;;;;;;;9.07;43.71;101919.73;1759129;79;21268;-76
2021/10/06 07:48:30;;;;;;;14.25;2.60;;;;;;;9.14;42.76;101937.36;1763500;79;21161;-76
2021/10/06 07:51:36;;;;;;;10.32;2.33;;;;;;;9.11;42.40;101914.40;1765795;79;21239;-77
2021/10/06 07:54:43;;;;;;;24.72;2.27;;;;;;;9.11;42.03;101948.52;1724606;81;21186;-77
2021/10/06 07:57:51;;;;;;;17.55;3.90;;;;;;;9.15;41.52;101919.11;1762622;79;21627;-74
2021/10/06 08:00:56;;;;;;;25.30;3.08;;;;;;;9.18;41.50;101918.87;1761663;79;21559;-76
2021/10/06 08:04:03;;;;;;;15.40;2.87;;;;;;;9.20;41.52;101916.36;1724165;81;21394;-75
2021/10/06 08:07:08;;;;;;;10.90;2.50;;;;;;;9.26;41.10;101916.84;1725420;81;21166;-75
2021/10/06 08:10:15;;;;;;;12.10;2.58;;;;;;;9.31;40.56;101911.36;1710541;82;21193;-76
2021/10/06 08:13:20;;;;;;;12.23;2.62;;;;;;;9.33;40.46;101903.05;1720894;82;21180;-76
2021/10/06 08:16:26;;;;;;;20.82;2.77;;;;;;;9.39;40.78;101900.66;1723569;82;21280;-76
2021/10/06 08:19:32;;;;;;;18.65;2.60;;;;;;;9.45;39.70;101891.94;1717442;82;21252;-75
2021/10/06 08:22:37;;;;;;;13.35;3.10;;;;;;;9.45;39.80;101911.05;1716694;82;21895;-77
2021/10/06 08:25:43;;;;;;;13.30;2.98;;;;;;;9.55;39.66;101887.05;1710468;81;21252;-76
2021/10/06 08:28:50;;;;;;;18.05;2.72;;;;;;;9.61;39.48;101898.84;1718676;81;21309;-76
2021/10/06 08:31:56;;;;;;;19.00;3.60;;;;;;;9.62;39.31;101874.11;1651671;83;21530;-75
2021/10/06 08:35:02;;;;;;;15.05;3.33;;;;;;;9.71;39.24;101909.34;1713673;83;21347;-75
2021/10/06 08:38:07;;;;;;;17.15;2.98;;;;;;;9.70;39.00;101891.22;1745663;80;21193;-76
2021/10/06 08:41:13;;;;;;;21.85;3.47;;;;;;;9.64;37.59;101882.17;1745528;81;21296;-75
2021/10/06 08:44:18;;;;;;;27.85;3.72;;;;;;;9.61;36.91;101872.89;1744855;80;21287;-74
2021/10/06 08:47:24;;;;;;;26.50;4.17;;;;;;;9.55;37.01;101871.56;1744456;80;21175;-75
2021/10/06 08:50:29;;;;;;;44.53;4.60;;;;;;;9.54;37.30;101886.19;1749038;80;21201;-77
2021/10/06 08:53:38;;;;;;;25.82;3.27;;;;;;;9.57;37.38;101875.52;1743135;80;21710;-75
2021/10/06 08:56:48;;;;;;;31.97;3.60;;;;;;;9.57;37.01;101894.64;1748669;81;21943;-76
2021/10/06 08:59:59;;;;;;;40.88;3.85;;;;;;;9.64;37.59;101873.97;1746310;80;21216;-76
2021/10/06 09:03:16;;;;;;;38.42;3.47;;;;;;;9.60;37.58;101873.89;1739887;81;21467;-76
2021/10/06 09:06:25;;;;;;;24.15;3.12;;;;;;;9.66;36.76;101868.75;1745337;81;21158;-76
2021/10/06 09:09:30;;;;;;;35.85;3.75;;;;;;;9.75;35.88;101873.92;1741949;81;21837;-77
2021/10/06 09:12:40;;;;;;;26.48;4.05;;;;;;;9.71;35.95;101858.80;1705567;82;21208;-77
2021/10/06 09:15:59;;;;;;;38.42;4.70;;;;;;;9.74;35.77;101853.08;1627137;84;21197;-76
2021/10/06 09:19:12;;;;;;;31.95;3.65;;;;;;;9.77;35.78;101855.52;1705766;81;21205;-77
2021/10/06 09:22:21;;;;;;;35.17;3.70;;;;;;;9.80;35.82;101853.90;1670861;81;21213;-76
2021/10/06 09:25:36;;;;;;;20.23;3.35;;;;;;;9.93;36.10;101876.43;1723445;81;21161;-76
2021/10/06 09:28:47;;;;;;;36.50;4.80;;;;;;;9.98;35.15;101858.26;1738616;80;21339;-76
2021/10/06 09:31:54;;;;;;;30.25;3.70;;;;;;;9.94;35.54;101856.29;1764407;78;21153;-77
2021/10/06 09:35:17;;;;;;;35.83;3.80;;;;;;;9.93;34.96;101865.50;1723575;81;21241;-75
2021/10/06 09:38:22;;;;;;;28.80;3.85;;;;;;;9.98;35.36;101857.75;1698728;81;21297;-76
2021/10/06 09:41:51;;;;;;;31.75;3.75;;;;;;;10.08;34.85;101866.02;1730415;81;21328;-75
2021/10/06 09:45:05;;;;;;;31.37;3.12;;;;;;;10.15;34.27;101847.18;1725195;81;21776;-75
2021/10/06 09:48:22;;;;;;;30.68;3.90;;;;;;;10.18;34.76;101849.15;1709933;82;21311;-75
2021/10/06 09:51:31;;;;;;;29.12;4.22;;;;;;;10.21;34.91;101845.30;1659171;82;21219;-75
2021/10/06 09:54:38;;;;;;;28.60;4.00;;;;;;;10.26;35.07;101843.05;1698377;80;21824;-76
2021/10/06 09:57:45;;;;;;;25.57;3.85;;;;;;;10.33;35.71;101839.24;1788910;79;21371;-76
2021/10/06 10:00:53;;;;;;;38.40;4.60;;;;;;;10.36;35.88;101833.00;1789228;78;21322;-75
2021/10/06 10:04:00;;;;;;;37.88;3.95;;;;;;;10.44;36.35;101831.82;1738917;79;21188;-76
2021/10/06 10:07:05;;;;;;;48.05;4.80;;;;;;;10.56;35.61;101835.80;1781113;79;21318;-75
2021/10/06 10:10:12;;;;;;;24.90;3.27;;;;;;;10.63;35.12;101833.75;1771686;79;21326;-75
2021/10/06 10:13:19;;;;;;;22.50;3.60;;;;;;;10.63;34.50;101832.86;1782287;79;21783;-75
2021/10/06 10:16:27;;;;;;;24.23;3.45;;;;;;;10.67;34.28;101842.52;1761101;79;21192;-76
2021/10/06 10:19:35;;;;;;;41.58;4.15;;;;;;;10.63;34.48;101853.38;1739284;79;22255;-75
2021/10/06 10:22:45;;;;;;;29.77;3.25;;;;;;;10.61;33.69;101839.84;1738162;79;21224;-75
2021/10/06 10:25:55;;;;;;;43.17;4.35;;;;;;;10.62;33.86;101831.99;1786243;79;21396;-75
2021/10/06 10:29:01;;;;;;;34.13;4.15;;;;;;;10.69;33.72;101823.60;1717974;79;21177;-76
2021/10/06 10:32:16;;;;;;;28.90;3.33;;;;;;;10.73;33.27;101837.88;1768384;79;21244;-76
2021/10/06 10:35:23;;;;;;;27.37;3.20;;;;;;;10.76;33.26;101840.31;1737659;80;21146;-75
2021/10/06 10:38:29;;;;;;;34.65;3.25;;;;;;;10.82;33.19;101825.20;1742688;80;21299;-76
2021/10/06 10:41:52;;;;;;;37.85;3.77;;;;;;;10.82;33.33;101820.61;1730433;80;21302;-76
2021/10/06 10:44:58;;;;;;;39.03;3.55;;;;;;;10.85;33.02;101817.57;1739787;80;21186;-75
2021/10/06 10:48:07;;;;;;;29.50;3.20;;;;;;;10.87;33.38;101818.31;1727683;79;21248;-74
2021/10/06 10:51:14;;;;;;;22.58;3.15;;;;;;;10.89;33.36;101803.11;1745351;80;21343;-75
2021/10/06 10:54:41;;;;;;;40.43;3.77;;;;;;;10.88;33.48;101813.19;1734049;80;21276;-74
2021/10/06 10:57:50;;;;;;;26.80;4.15;;;;;;;10.92;33.16;101820.13;1726441;80;21336;-75
2021/10/06 11:00:58;;;;;;;31.15;2.60;;;;;;;10.94;33.51;101803.03;1717146;81;21909;-75
2021/10/06 11:04:27;;;;;;;38.58;4.33;;;;;;;10.96;33.11;101798.30;1738536;80;21197;-75
2021/10/06 11:07:32;;;;;;;34.75;4.10;;;;;;;10.97;32.48;101804.64;1742096;80;21614;-75
2021/10/06 11:10:37;;;;;;;37.35;4.62;;;;;;;11.02;33.03;101791.89;1729642;80;21318;-75
2021/10/06 11:13:48;;;;;;;24.32;3.90;;;;;;;11.06;32.74;101793.34;1723821;81;22464;-76
2021/10/06 11:17:15;;;;;;;20.37;4.05;;;;;;;11.07;32.53;101813.72;1672540;82;21197;-75
2021/10/06 11:20:20;;;;;;;33.28;5.15;;;;;;;11.04;32.64;101793.97;1716200;81;21290;-76
2021/10/06 11:23:43;;;;;;;23.30;3.92;;;;;;;11.04;32.58;101792.59;1729655;80;21754;-76
2021/10/06 11:30:06;;;;;;;35.52;3.65;;;;;;;11.13;32.45;101786.26;1704924;82;21220;-75
2021/10/06 11:33:14;;;;;;;24.02;3.35;;;;;;;11.15;32.08;101797.92;1694966;81;21221;-76
2021/10/06 11:36:25;;;;;;;34.18;4.12;;;;;;;11.17;32.05;101791.81;1712837;82;21385;-76
2021/10/06 11:39:32;;;;;;;20.57;3.08;;;;;;;11.24;32.18;101794.31;1681148;83;21342;-76
2021/10/06 11:42:43;;;;;;;30.75;3.92;;;;;;;11.27;31.63;101795.41;1630384;86;21208;-75
2021/10/06 11:48:32;;;;;;;18.92;3.77;;;;;;;11.24;31.57;101787.47;1838286;76;28259;-74
2021/10/06 11:51:51;;;;;;;27.87;3.65;;;;;;;11.26;32.04;101782.73;1791077;77;21198;-76
2021/10/06 11:55:00;;;;;;;21.17;3.42;;;;;;;11.37;31.10;101786.67;1757288;79;21318;-76
2021/10/06 11:58:10;;;;;;;51.02;4.08;;;;;;;11.37;30.86;101790.78;1727696;80;21235;-76
2021/10/06 12:01:16;;;;;;;29.25;3.85;;;;;;;11.44;30.93;101788.34;1734471;80;21346;-75
2021/10/06 12:04:23;;;;;;;30.50;3.98;;;;;;;11.45;30.89;101779.97;1770733;80;21193;-76
2021/10/06 12:07:32;;;;;;;29.60;4.05;;;;;;;11.48;30.50;101787.05;1714426;81;21205;-76
2021/10/06 12:10:38;;;;;;;30.65;3.60;;;;;;;11.46;30.65;101784.43;1721222;81;21311;-75
2021/10/06 12:13:45;;;;;;;15.10;3.25;;;;;;;11.45;30.28;101798.28;1729792;82;21992;-77
2021/10/06 12:16:52;;;;;;;33.25;3.55;;;;;;;11.46;30.38;101799.50;1734891;80;21724;-76
2021/10/06 12:20:17;;;;;;;32.53;3.83;;;;;;;11.48;30.39;101776.95;1741543;80;21291;-77
2021/10/06 12:23:31;;;;;;;32.83;4.75;;;;;;;11.54;30.57;101774.12;1735005;80;21155;-76
2021/10/06 12:26:41;;;;;;;22.22;3.20;;;;;;;11.53;30.20;101783.36;1739480;81;21653;-76
2021/10/06 12:29:47;;;;;;;26.17;3.27;;;;;;;11.55;29.77;101780.45;1772273;80;21278;-78
2021/10/06 12:32:59;;;;;;;26.12;2.70;;;;;;;11.56;29.71;101778.93;1761910;80;21307;-76
2021/10/06 12:36:10;;;;;;;20.00;2.98;;;;;;;11.56;29.96;101772.08;1744938;80;21345;-74
2021/10/06 12:39:21;;;;;;;20.32;2.90;;;;;;;11.56;30.13;101772.59;1752586;80;21291;-79
2021/10/06 12:42:26;;;;;;;21.17;3.40;;;;;;;11.60;29.33;101757.59;1768899;80;21826;-79
2021/10/06 12:45:32;;;;;;;25.50;3.42;;;;;;;11.59;29.36;101777.79;1739347;80;21303;-75
2021/10/06 12:48:53;;;;;;;29.05;4.50;;;;;;;11.56;29.60;101771.22;1715887;81;21215;-74
2021/10/06 12:52:09;;;;;;;22.32;4.03;;;;;;;11.56;29.92;101774.82;1719041;81;21259;-76
2021/10/06 12:55:21;;;;;;;27.13;3.22;;;;;;;11.57;29.85;101762.84;1721881;81;21285;-75
2021/10/06 12:58:24;;;;;;;;;;;;;;;11.56;29.89;101772.59;1737338;81;21532;-76
2021/10/06 13:01:32;;;;;;;25.92;3.22;;;;;;;11.51;29.95;101747.86;1701476;82;20290;-76
2021/10/06 13:04:37;;;;;;;20.37;3.42;;;;;;;11.49;29.55;101756.75;1698315;84;21181;-75
2021/10/06 13:07:43;;;;;;;22.75;3.20;;;;;;;11.50;29.17;101756.23;1688542;82;21267;-75
2021/10/06 13:10:48;;;;;;;14.40;2.70;;;;;;;11.50;28.88;101761.20;1699652;82;21220;-75
2021/10/06 13:13:55;;;;;;;20.62;3.37;;;;;;;11.48;29.38;101762.38;1732771;81;21314;-74
2021/10/06 13:17:00;;;;;;;18.90;2.85;;;;;;;11.46;29.99;101766.62;1694003;83;21216;-75
2021/10/06 13:20:11;;;;;;;31.80;2.92;;;;;;;11.45;30.17;101771.75;1706460;82;21840;-75
2021/10/06 13:23:16;;;;;;;26.02;2.90;;;;;;;11.44;29.80;101759.58;1708774;83;21213;-74
2021/10/06 13:26:21;;;;;;;23.70;3.35;;;;;;;11.41;29.33;101767.57;1710674;82;21210;-74
2021/10/06 13:29:31;;;;;;;20.05;2.52;;;;;;;11.38;29.73;101764.25;1713863;81;22655;-75
2021/10/06 13:32:36;;;;;;;11.85;2.90;;;;;;;11.38;30.06;101760.14;1732496;81;21288;-75
2021/10/06 13:35:41;;;;;;;14.35;3.98;;;;;;;11.39;30.07;101757.28;1722483;81;21380;-75
2021/10/06 13:38:46;;;;;;;25.02;3.08;;;;;;;11.40;30.48;101767.73;1726823;81;21917;-76
2021/10/06 13:41:53;;;;;;;22.42;2.85;;;;;;;11.40;30.04;101764.98;1731663;81;21357;-75
2021/10/06 13:44:57;;;;;;;13.18;2.70;;;;;;;11.38;29.85;101791.13;1729836;82;21406;-75
2021/10/06 13:48:03;;;;;;;15.03;2.75;;;;;;;11.34;29.82;101799.31;1732098;81;21952;-75
2021/10/06 13:51:09;;;;;;;27.25;3.12;;;;;;;11.29;29.98;101769.23;1722973;83;21834;-75
2021/10/06 13:54:14;;;;;;;15.18;2.77;;;;;;;11.21;29.53;101774.09;1686552;85;21265;-75
2021/10/06 13:57:22;;;;;;;12.00;2.72;;;;;;;11.17;29.23;101768.53;1660763;86;21395;-75
2021/10/06 14:00:31;;;;;;;15.48;2.80;;;;;;;11.13;29.40;101769.32;1687686;85;21366;-75
2021/10/06 14:03:35;;;;;;;26.15;2.65;;;;;;;11.12;29.53;101754.41;1689038;85;21362;-75
2021/10/06 14:06:40;;;;;;;12.20;2.52;;;;;;;11.09;29.75;101775.23;1688201;85;21375;-75
2021/10/06 14:09:46;;;;;;;9.08;2.30;;;;;;;11.04;29.85;101768.81;1659424;86;21367;-75
2021/10/06 14:12:51;;;;;;;20.20;3.00;;;;;;;10.99;29.75;101774.72;1689337;85;21348;-75
2021/10/06 14:15:57;;;;;;;8.98;2.55;;;;;;;10.97;30.25;101780.00;1688559;85;21356;-75
2021/10/06 14:19:03;;;;;;;11.48;2.52;;;;;;;10.90;30.47;101772.84;1660574;86;21338;-75
2021/10/06 14:22:10;;;;;;;8.13;2.70;;;;;;;10.85;30.42;101771.55;1688712;85;21327;-75
2021/10/06 14:25:16;;;;;;;9.15;2.65;;;;;;;10.81;30.40;101781.05;1687588;85;21364;-75
2021/10/06 14:28:21;;;;;;;17.32;2.52;;;;;;;10.74;30.58;101782.13;1689745;85;21300;-75
2021/10/06 14:31:26;;;;;;;9.48;2.70;;;;;;;10.68;30.69;101773.98;1662025;86;21864;-75
2021/10/06 14:34:31;;;;;;;18.87;2.62;;;;;;;10.63;30.90;101784.97;1689645;85;21316;-75
2021/10/06 14:37:36;;;;;;;12.00;2.87;;;;;;;10.57;30.90;101775.97;1689368;85;21201;-75